createdAt,value
2023-02-25T00:04:08.948Z,6.9
2023-02-25T00:09:52.629Z,3.1
2023-02-25T00:15:37.175Z,5
2023-02-25T00:21:21.012Z,4.9
2023-02-25T00:27:05.349Z,4.2
2023-02-25T00:32:53.249Z,4
2023-02-25T00:38:37.131Z,6
2023-02-25T00:44:21.743Z,6.8
2023-02-25T00:50:05.397Z,6.3
2023-02-25T00:55:49.089Z,4.5
2023-02-25T01:01:34.488Z,6.6
2023-02-25T01:07:18.221Z,6
2023-02-25T01:13:01.873Z,6.7
2023-02-25T01:18:46.398Z,5.4
2023-02-25T01:24:31.609Z,4.7
2023-02-25T01:30:16.725Z,4.9
2023-02-25T01:36:00.238Z,4.6
2023-02-25T01:41:44.234Z,5.1
2023-02-25T01:47:33.032Z,4.5
2023-02-25T01:53:18.327Z,6.6
2023-02-25T01:59:02.210Z,5.2
2023-02-25T02:04:50.295Z,5.5
2023-02-25T02:10:34.021Z,5.2
2023-02-25T02:16:29.930Z,5.7
2023-02-25T02:22:18.116Z,5.4
2023-02-25T02:28:16.392Z,4.3
2023-02-25T02:34:09.474Z,5.5
2023-02-25T02:39:59.222Z,4.9
2023-02-25T02:45:48.931Z,4.9
2023-02-25T02:51:36.684Z,6.5
2023-02-25T02:57:22.320Z,5
2023-02-25T03:03:10.232Z,7.5
2023-02-25T03:08:56.901Z,5.1
2023-02-25T03:14:40.701Z,5.7
2023-02-25T03:20:27.622Z,5.9
2023-02-25T03:26:14.988Z,5.8
2023-02-25T03:32:01.653Z,5
2023-02-25T03:37:47.242Z,7.1
2023-02-25T03:43:33.951Z,7.2
2023-02-25T03:49:21.760Z,4.4
2023-02-25T03:55:05.884Z,6.6
2023-02-25T04:00:50.926Z,6.6
2023-02-25T04:06:35.145Z,7.3
2023-02-25T04:12:19.097Z,8.5
2023-02-25T04:18:03.935Z,5.7
2023-02-25T04:23:47.678Z,5.2
2023-02-25T04:29:32.055Z,5.3
2023-02-25T04:35:16.166Z,4.5
2023-02-25T04:41:00.181Z,4.8
2023-02-25T04:46:45.208Z,5.2
2023-02-25T04:52:29.651Z,8.2
2023-02-25T04:58:13.417Z,5.1
2023-02-25T05:03:57.309Z,5.2
2023-02-25T05:09:41.058Z,4.7
2023-02-25T05:15:25.724Z,4.2
2023-02-25T05:21:11.320Z,6.1
2023-02-25T05:26:55.949Z,6
2023-02-25T05:32:40.221Z,7.4
2023-02-25T05:38:23.835Z,6.9
2023-02-25T05:44:07.727Z,7
2023-02-25T05:49:51.628Z,9.5
2023-02-25T05:55:35.260Z,7.1
2023-02-25T06:01:20.642Z,6.7
2023-02-25T06:07:05.351Z,6.3
2023-02-25T06:12:49.446Z,6.2
2023-02-25T06:18:33.119Z,5.2
2023-02-25T06:24:17.908Z,7.1
2023-02-25T06:30:03.079Z,3.5
2023-02-25T06:35:46.820Z,7.2
2023-02-25T06:41:31.794Z,6.3
2023-02-25T06:47:15.482Z,5
2023-02-25T06:52:59.787Z,5.2
2023-02-25T06:58:43.716Z,4.9
2023-02-25T07:04:28.899Z,6.1
2023-02-25T07:10:14.270Z,4.5
2023-02-25T07:15:58.168Z,3.8
2023-02-25T07:21:41.782Z,6.4
2023-02-25T07:27:25.404Z,3.6
2023-02-25T07:33:09.282Z,5.4
2023-02-25T07:38:53.078Z,5.6
2023-02-25T07:44:36.707Z,7.3
2023-02-25T07:50:20.582Z,5.7
2023-02-25T07:56:04.582Z,4.8
2023-02-25T08:01:48.515Z,6
2023-02-25T08:07:32.294Z,7
2023-02-25T08:13:16.032Z,5.8
2023-02-25T08:19:00.000Z,6.1
2023-02-25T08:24:44.556Z,77.9
2023-02-25T08:30:28.579Z,62.9
2023-02-25T08:36:16.531Z,55.9
2023-02-25T08:42:00.121Z,45.2
2023-02-25T08:47:44.847Z,41.7
2023-02-25T08:53:28.467Z,32.1
2023-02-25T08:59:13.218Z,31.1
2023-02-25T09:04:57.134Z,29.6
2023-02-25T09:10:51.940Z,24.8
2023-02-25T09:16:36.040Z,29.8
2023-02-25T09:22:20.021Z,23.1
2023-02-25T09:28:04.696Z,21.2
2023-02-25T09:33:48.311Z,18.8
2023-02-25T09:39:31.906Z,14.8
2023-02-25T09:45:17.000Z,11
2023-02-25T09:51:05.888Z,12.6
2023-02-25T09:56:50.265Z,10.2
2023-02-25T10:02:38.334Z,9.4
2023-02-25T10:08:24.573Z,9.7
2023-02-25T10:14:13.170Z,12.8
2023-02-25T10:20:03.505Z,11.3
2023-02-25T10:25:52.381Z,9
2023-02-25T10:31:37.346Z,9.5
2023-02-25T10:37:24.107Z,10.6
2023-02-25T10:43:13.919Z,8.8
2023-02-25T10:49:19.152Z,8.2
2023-02-25T10:55:02.978Z,6.5
2023-02-25T11:01:01.529Z,7.8
2023-02-25T11:06:45.903Z,9.1
2023-02-25T11:12:29.713Z,10.7
2023-02-25T11:18:18.273Z,6
2023-02-25T11:24:02.932Z,7.1
2023-02-25T11:29:46.926Z,8.4
2023-02-25T11:35:32.939Z,6.2
2023-02-25T11:41:26.621Z,7.9
2023-02-25T11:47:18.708Z,6.8
2023-02-25T11:53:07.227Z,7
2023-02-25T11:58:57.035Z,8.6
2023-02-25T12:04:55.168Z,4.9
2023-02-25T12:10:50.621Z,8.5
2023-02-25T12:16:47.357Z,5.4
2023-02-25T12:22:53.269Z,6.7
2023-02-25T12:28:54.125Z,7.8
2023-02-25T12:34:52.671Z,5.7
2023-02-25T12:40:43.858Z,8.1
2023-02-25T12:46:29.468Z,7.4
2023-02-25T12:52:24.452Z,5.3
2023-02-25T12:58:22.911Z,5.5
2023-02-25T13:04:15.159Z,7
2023-02-25T13:10:05.230Z,7.6
2023-02-25T13:15:56.692Z,6.3
2023-02-25T13:21:48.835Z,6.9
2023-02-25T13:27:55.687Z,5.7
2023-02-25T13:33:59.979Z,6.3
2023-02-25T13:39:55.146Z,8.5
2023-02-25T13:45:48.526Z,6.3
2023-02-25T13:51:41.112Z,7.6
2023-02-25T13:57:32.935Z,5.7
2023-02-25T14:03:24.936Z,7.1
2023-02-25T14:09:21.117Z,4.6
2023-02-25T14:15:15.983Z,5
2023-02-25T14:21:04.404Z,3.7
2023-02-25T14:26:52.605Z,3.7
2023-02-25T14:32:43.634Z,4.6
2023-02-25T14:38:35.172Z,4.6
2023-02-25T14:44:22.678Z,3.8
2023-02-25T14:50:09.498Z,4.7
2023-02-25T14:56:04.667Z,6.6
2023-02-25T15:02:06.519Z,3.6
2023-02-25T15:07:59.390Z,5.3
2023-02-25T15:14:00.552Z,4.7
2023-02-25T15:20:10.567Z,3.6
2023-02-25T15:26:00.156Z,4.3
2023-02-25T15:31:45.508Z,3.3
2023-02-25T15:37:31.767Z,3.2
2023-02-25T15:43:27.680Z,3.7
2023-02-25T15:49:16.482Z,3.8
2023-02-25T15:55:05.228Z,4.5
2023-02-25T16:00:56.639Z,5.5
2023-02-25T16:06:41.647Z,4.3
2023-02-25T16:12:25.904Z,4.4
2023-02-25T16:18:16.096Z,6.2
2023-02-25T16:24:00.160Z,4.6
2023-02-25T16:29:53.279Z,2.7
2023-02-25T16:35:39.696Z,5
2023-02-25T16:41:39.981Z,4.7
2023-02-25T16:47:26.236Z,4.2
2023-02-25T16:53:15.162Z,5.2
2023-02-25T16:59:07.184Z,6.9
2023-02-25T17:04:51.714Z,5.3
2023-02-25T17:10:37.366Z,2.9
2023-02-25T17:16:26.233Z,4.5
2023-02-25T17:22:10.374Z,3.6
2023-02-25T17:27:56.824Z,4
2023-02-25T17:33:45.615Z,2.7
2023-02-25T17:39:30.198Z,5.9
2023-02-25T17:45:23.883Z,3.4
2023-02-25T17:51:09.759Z,4.4
2023-02-25T17:56:57.541Z,3.2
2023-02-25T18:02:43.548Z,5.3
2023-02-25T18:08:29.249Z,5.2
2023-02-25T18:14:24.770Z,3.4
2023-02-25T18:20:10.144Z,4.8
2023-02-25T18:25:58.874Z,3.2
2023-02-25T18:31:43.523Z,6.9
2023-02-25T18:37:28.122Z,6.7
2023-02-25T18:43:17.166Z,3.7
2023-02-25T18:49:00.791Z,6.1
2023-02-25T18:54:44.928Z,4
2023-02-25T19:00:31.083Z,4
2023-02-25T19:06:15.183Z,4.6
2023-02-25T19:11:59.104Z,4.2
2023-02-25T19:17:42.673Z,7.1
2023-02-25T19:23:26.614Z,5.4
2023-02-25T19:29:10.332Z,4.9
2023-02-25T19:34:54.267Z,5.9
2023-02-25T19:40:44.541Z,5.5
2023-02-25T19:46:29.152Z,5.2
2023-02-25T19:52:13.480Z,8.1
2023-02-25T19:57:57.435Z,5
2023-02-25T20:03:41.707Z,5.8
2023-02-25T20:09:25.593Z,5.6
2023-02-25T20:15:09.938Z,5.1
2023-02-25T20:20:53.706Z,5.3
2023-02-25T20:26:37.304Z,7.6
2023-02-25T20:32:21.496Z,3.7
2023-02-25T20:38:18.283Z,6.7
2023-02-25T20:44:02.160Z,4
2023-02-25T20:49:46.167Z,6.3
2023-02-25T20:55:30.133Z,6.5
2023-02-25T21:01:13.823Z,5.1
2023-02-25T21:06:57.490Z,4.5
2023-02-25T21:12:41.286Z,6.7
2023-02-25T21:18:25.038Z,4
2023-02-25T21:24:09.873Z,4.9
2023-02-25T21:29:54.507Z,4.5
2023-02-25T21:35:38.280Z,5
2023-02-25T21:41:28.222Z,4
2023-02-25T21:47:12.135Z,3.9
2023-02-25T21:52:55.688Z,4.8
2023-02-25T21:58:39.626Z,5
2023-02-25T22:04:23.902Z,5.1
2023-02-25T22:10:08.098Z,6.8
2023-02-25T22:15:53.140Z,5.6
2023-02-25T22:21:37.451Z,4.4
2023-02-25T22:27:21.198Z,5.3
2023-02-25T22:33:05.041Z,5.5
2023-02-25T22:38:50.158Z,6.3
2023-02-25T22:44:34.367Z,5.4
2023-02-25T22:50:18.417Z,5.5
2023-02-25T22:56:06.267Z,4.2
2023-02-25T23:01:50.373Z,5.2
2023-02-25T23:07:34.135Z,11.4
2023-02-25T23:13:18.022Z,7.3
2023-02-25T23:19:03.083Z,6.4
2023-02-25T23:24:46.803Z,6.4
2023-02-25T23:30:30.801Z,6.8
2023-02-25T23:36:15.085Z,5.5
2023-02-25T23:42:01.154Z,6.1
2023-02-25T23:47:45.298Z,6.5
2023-02-25T23:53:29.316Z,5.7
2023-02-25T23:59:13.227Z,6
